createdAt,value
2018-10-12T00:01:48.995Z,19.20
2018-10-12T00:04:19.188Z,18.83
2018-10-12T00:06:48.061Z,20.17
2018-10-12T00:09:16.871Z,18.53
2018-10-12T00:11:45.448Z,18.83
2018-10-12T00:14:14.443Z,21.30
2018-10-12T00:16:43.272Z,18.63
2018-10-12T00:19:23.653Z,18.70
2018-10-12T00:21:52.705Z,19.53
2018-10-12T00:24:21.515Z,20.57
2018-10-12T00:26:51.081Z,18.87
2018-10-12T00:29:19.779Z,18.53
2018-10-12T00:31:49.840Z,25.40
2018-10-12T00:34:19.377Z,19.07
2018-10-12T00:36:47.982Z,20.03
2018-10-12T00:39:16.539Z,19.37
2018-10-12T00:41:45.092Z,19.10
2018-10-12T00:44:13.736Z,22.53
2018-10-12T00:46:48.196Z,29.00
2018-10-12T00:49:16.891Z,22.07
2018-10-12T00:51:45.532Z,18.77
2018-10-12T00:54:14.439Z,19.17
2018-10-12T00:56:43.016Z,18.43
2018-10-12T00:59:11.484Z,17.67
2018-10-12T01:01:39.958Z,17.60
2018-10-12T01:04:09.312Z,19.13
2018-10-12T01:06:39.281Z,23.00
2018-10-12T01:09:08.488Z,22.80
2018-10-12T01:11:36.971Z,19.63
2018-10-12T01:14:06.500Z,17.30
2018-10-12T01:16:37.015Z,21.40
2018-10-12T01:19:07.587Z,18.30
2018-10-12T01:21:37.271Z,22.43
2018-10-12T01:24:07.529Z,18.80
2018-10-12T01:26:36.848Z,17.37
2018-10-12T01:29:07.004Z,17.73
2018-10-12T01:31:38.463Z,17.90
2018-10-12T01:34:08.339Z,19.20
2018-10-12T01:36:38.088Z,20.70
2018-10-12T01:39:13.857Z,19.00
2018-10-12T01:41:43.027Z,18.40
2018-10-12T01:44:12.621Z,17.90
2018-10-12T01:46:42.068Z,17.30
2018-10-12T01:49:12.739Z,18.40
2018-10-12T01:51:47.070Z,22.97
2018-10-12T01:54:16.713Z,19.43
2018-10-12T01:56:45.801Z,19.67
2018-10-12T01:59:14.917Z,20.27
2018-10-12T02:01:44.204Z,21.37
2018-10-12T02:04:14.300Z,18.33
2018-10-12T02:06:43.819Z,17.77
2018-10-12T02:09:13.422Z,18.90
2018-10-12T02:11:43.548Z,18.30
2018-10-12T02:14:13.190Z,18.50
2018-10-12T02:16:44.918Z,18.00
2018-10-12T02:19:14.794Z,18.43
2018-10-12T02:21:53.195Z,22.43
2018-10-12T02:24:37.046Z,18.40
2018-10-12T02:27:24.888Z,18.43
2018-10-12T02:30:01.397Z,16.80
2018-10-12T02:48:05.831Z,17.47
2018-10-12T02:59:29.152Z,19.97
2018-10-12T03:02:09.778Z,17.73
2018-10-12T03:04:52.261Z,16.90
2018-10-12T03:07:35.068Z,22.26
2018-10-12T03:10:23.620Z,21.37
2018-10-12T03:13:14.609Z,17.53
2018-10-12T03:16:10.560Z,19.60
2018-10-12T03:18:51.630Z,17.93
2018-10-12T03:24:21.460Z,21.37
2018-10-12T03:27:02.334Z,17.73
2018-10-12T03:29:52.556Z,17.50
2018-10-12T03:42:01.064Z,19.40
2018-10-12T03:44:36.101Z,18.27
2018-10-12T03:47:16.276Z,21.27
2018-10-12T03:49:51.987Z,16.07
2018-10-12T03:52:36.729Z,16.83
2018-10-12T03:55:19.337Z,19.63
2018-10-12T03:58:03.431Z,19.92
2018-10-12T04:00:40.085Z,20.03
2018-10-12T04:03:15.308Z,21.10
2018-10-12T04:05:48.307Z,19.80
2018-10-12T04:32:11.212Z,22.93
2018-10-12T04:34:56.912Z,23.10
2018-10-12T04:37:38.460Z,23.37
2018-10-12T04:40:24.677Z,19.73
2018-10-12T04:43:03.581Z,21.80
2018-10-12T04:45:59.337Z,23.00
2018-10-12T04:48:34.630Z,18.27
2018-10-12T04:51:08.822Z,19.47
2018-10-12T04:53:37.603Z,22.93
2018-10-12T04:56:10.102Z,21.10
2018-10-12T04:58:43.575Z,20.90
2018-10-12T05:10:12.105Z,24.30
2018-10-12T05:12:58.359Z,23.17
2018-10-12T05:15:33.081Z,20.67
2018-10-12T05:18:12.447Z,21.50
2018-10-12T05:20:43.785Z,27.30
2018-10-12T05:23:20.019Z,24.10
2018-10-12T05:25:59.795Z,24.80
2018-10-12T05:28:44.420Z,22.40
2018-10-12T05:31:18.103Z,24.93
2018-10-12T05:33:48.620Z,26.00
2018-10-12T05:36:29.294Z,22.03
2018-10-12T05:39:08.770Z,27.27
2018-10-12T05:41:48.121Z,22.33
2018-10-12T05:47:38.235Z,23.33
2018-10-12T05:50:27.673Z,22.10
2018-10-12T05:53:02.171Z,24.40
2018-10-12T05:55:31.190Z,24.53
2018-10-12T05:58:00.445Z,23.30
2018-10-12T06:06:20.476Z,24.13
2018-10-12T06:08:49.420Z,23.60
2018-10-12T06:11:18.774Z,24.27
2018-10-12T06:13:47.684Z,25.87
2018-10-12T06:16:18.123Z,25.20
2018-10-12T06:18:47.165Z,27.33
2018-10-12T06:21:15.948Z,25.47
2018-10-12T06:23:45.455Z,24.27
2018-10-12T06:26:14.880Z,23.27
2018-10-12T06:28:44.036Z,22.27
2018-10-12T06:31:13.590Z,22.27
2018-10-12T06:33:43.107Z,22.90
2018-10-12T06:36:11.824Z,24.70
2018-10-12T06:38:41.182Z,21.00
2018-10-12T06:41:18.188Z,27.60
2018-10-12T06:43:47.186Z,22.67
2018-10-12T06:46:16.929Z,23.37
2018-10-12T06:48:46.466Z,21.07
2018-10-12T06:51:15.877Z,21.63
2018-10-12T06:53:45.179Z,24.10
2018-10-12T06:56:14.542Z,21.43
2018-10-12T06:58:53.754Z,26.83
2018-10-12T07:01:31.082Z,20.63
2018-10-12T07:04:11.627Z,21.97
2018-10-12T07:06:54.520Z,27.00
2018-10-12T07:09:47.538Z,22.27
2018-10-12T07:12:20.300Z,24.30
2018-10-12T07:15:05.132Z,31.03
2018-10-12T07:20:44.812Z,26.13
2018-10-12T07:23:27.851Z,22.10
2018-10-12T07:26:02.517Z,32.20
2018-10-12T07:28:40.620Z,23.80
2018-10-12T07:31:20.723Z,22.27
2018-10-12T07:33:59.770Z,22.30
2018-10-12T07:36:36.574Z,22.90
2018-10-12T07:39:13.285Z,21.10
2018-10-12T07:41:49.590Z,21.23
2018-10-12T07:44:25.736Z,22.57
2018-10-12T07:47:04.633Z,21.37
2018-10-12T07:53:05.590Z,22.00
2018-10-12T07:55:52.423Z,21.30
2018-10-12T07:58:31.792Z,21.50
2018-10-12T08:01:15.888Z,20.30
2018-10-12T08:12:24.333Z,28.00
2018-10-12T08:14:54.104Z,22.00
2018-10-12T08:17:23.527Z,20.40
2018-10-12T08:19:53.449Z,21.03
2018-10-12T08:22:23.309Z,21.27
2018-10-12T08:24:52.870Z,21.20
2018-10-12T08:27:22.870Z,20.77
2018-10-12T08:29:52.508Z,21.80
2018-10-12T08:32:22.362Z,20.90
2018-10-12T08:34:51.390Z,25.30
2018-10-12T08:37:34.678Z,20.47
2018-10-12T09:20:14.430Z,21.23
2018-10-12T09:22:53.588Z,18.80
2018-10-12T09:28:22.503Z,18.33
2018-10-12T09:31:05.413Z,21.30
2018-10-12T09:36:36.743Z,19.43
2018-10-12T09:39:21.458Z,18.63
2018-10-12T09:42:05.234Z,18.03
2018-10-12T09:47:17.630Z,19.97
2018-10-12T09:49:47.619Z,18.67
2018-10-12T09:52:27.795Z,18.30
2018-10-12T09:55:05.411Z,18.90
2018-10-12T09:57:42.469Z,20.93
2018-10-12T10:00:23.810Z,20.30
2018-10-12T10:14:22.201Z,19.30
2018-10-12T10:17:02.973Z,17.23
2018-10-12T10:19:46.739Z,16.57
2018-10-12T10:22:24.342Z,16.90
2018-10-12T10:25:09.733Z,17.43
2018-10-12T10:30:40.214Z,19.93
2018-10-12T10:33:15.630Z,16.20
2018-10-12T10:36:05.004Z,16.50
2018-10-12T10:53:20.462Z,15.63
2018-10-12T10:56:38.227Z,14.63
2018-10-12T10:59:15.803Z,15.80
2018-10-12T11:01:55.107Z,17.90
2018-10-12T11:04:41.261Z,15.23
2018-10-12T11:07:28.209Z,16.23
2018-10-12T11:26:18.346Z,15.67
2018-10-12T11:44:30.582Z,15.07
2018-10-12T11:51:35.316Z,13.60
2018-10-12T11:54:14.664Z,14.03
2018-10-12T11:56:58.590Z,14.87
2018-10-12T11:59:56.346Z,14.10
2018-10-12T12:37:30.612Z,13.63
2018-10-12T12:45:58.147Z,13.00
2018-10-12T12:48:41.926Z,12.53
2018-10-12T12:51:21.781Z,13.43
2018-10-12T12:53:58.830Z,12.67
2018-10-12T12:56:49.708Z,14.00
2018-10-12T12:59:51.078Z,13.10
2018-10-12T13:02:20.057Z,13.67
2018-10-12T13:04:50.272Z,13.47
2018-10-12T13:20:39.403Z,13.43
2018-10-12T13:28:46.859Z,13.23
2018-10-12T13:31:15.909Z,13.80
2018-10-12T13:33:46.651Z,13.20
2018-10-12T13:36:22.429Z,14.13
2018-10-12T13:38:53.814Z,12.47
2018-10-12T13:41:26.100Z,13.03
2018-10-12T13:43:56.690Z,12.80
2018-10-12T13:46:39.121Z,13.03
2018-10-12T13:49:13.154Z,13.73
2018-10-12T13:51:43.216Z,13.43
2018-10-12T13:54:26.899Z,13.93
2018-10-12T13:57:03.534Z,14.27
2018-10-12T13:59:55.012Z,13.43
2018-10-12T14:02:56.346Z,14.87
2018-10-12T14:16:22.084Z,16.10
2018-10-12T14:22:08.574Z,14.33
2018-10-12T14:24:57.928Z,14.17
2018-10-12T14:27:35.186Z,15.53
2018-10-12T14:30:13.231Z,14.17
2018-10-12T14:38:45.129Z,13.97
2018-10-12T14:41:36.126Z,14.53
2018-10-12T14:44:36.200Z,14.73
2018-10-12T14:47:16.517Z,13.73
2018-10-12T14:50:03.439Z,14.73
2018-10-12T14:52:52.013Z,14.30
2018-10-12T14:58:52.552Z,14.37
2018-10-12T15:01:59.440Z,13.70
2018-10-12T15:10:42.270Z,14.70
2018-10-12T15:13:24.630Z,15.00
2018-10-12T15:25:30.099Z,16.43
2018-10-12T22:04:57.039Z,29.00
2018-10-12T22:19:29.737Z,29.87
2018-10-12T22:27:14.262Z,31.10
2018-10-12T22:40:31.080Z,28.43
2018-10-12T22:43:07.903Z,33.53
2018-10-12T22:45:53.946Z,30.37
2018-10-12T22:52:32.630Z,34.90
2018-10-12T23:11:44.390Z,41.93
2018-10-12T23:18:12.311Z,42.90
2018-10-12T23:21:05.027Z,44.73
2018-10-12T23:24:05.616Z,40.20
2018-10-12T23:26:55.404Z,41.13
2018-10-12T23:32:37.761Z,44.67
2018-10-12T23:35:43.765Z,46.37
2018-10-12T23:38:25.273Z,40.13
2018-10-12T23:44:01.617Z,38.23
2018-10-12T23:46:42.525Z,34.27
2018-10-12T23:49:20.572Z,37.63
2018-10-12T23:54:52.279Z,38.47
